sensor_id;sensor_type;location;lat;lon;timestamp;temperature;humidity
7234;DHT22;3658;47.992;10.158;2024-03-29T00:01:13;17.90;39.30
7234;DHT22;3658;47.992;10.158;2024-03-29T00:03:39;17.90;39.30
7234;DHT22;3658;47.992;10.158;2024-03-29T00:06:05;17.90;39.30
7234;DHT22;3658;47.992;10.158;2024-03-29T00:08:31;17.90;39.30
7234;DHT22;3658;47.992;10.158;2024-03-29T00:10:57;17.90;39.30
7234;DHT22;3658;47.992;10.158;2024-03-29T00:13:23;17.90;39.30
7234;DHT22;3658;47.992;10.158;2024-03-29T00:15:48;17.90;39.30
7234;DHT22;3658;47.992;10.158;2024-03-29T00:18:16;17.90;39.30
7234;DHT22;3658;47.992;10.158;2024-03-29T00:20:41;17.90;39.30
7234;DHT22;3658;47.992;10.158;2024-03-29T00:23:07;17.90;39.30
7234;DHT22;3658;47.992;10.158;2024-03-29T00:25:33;17.90;39.30
7234;DHT22;3658;47.992;10.158;2024-03-29T00:27:59;17.90;39.30
7234;DHT22;3658;47.992;10.158;2024-03-29T00:30:25;17.90;39.30
7234;DHT22;3658;47.992;10.158;2024-03-29T00:32:50;17.90;39.20
7234;DHT22;3658;47.992;10.158;2024-03-29T00:35:18;17.90;39.30
7234;DHT22;3658;47.992;10.158;2024-03-29T00:37:43;17.90;39.20
7234;DHT22;3658;47.992;10.158;2024-03-29T00:40:10;17.90;39.20
7234;DHT22;3658;47.992;10.158;2024-03-29T00:42:36;17.90;39.20
7234;DHT22;3658;47.992;10.158;2024-03-29T00:45:03;17.90;39.90
7234;DHT22;3658;47.992;10.158;2024-03-29T00:47:29;17.90;39.20
7234;DHT22;3658;47.992;10.158;2024-03-29T00:49:54;17.90;39.20
7234;DHT22;3658;47.992;10.158;2024-03-29T00:52:22;17.90;39.20
7234;DHT22;3658;47.992;10.158;2024-03-29T00:54:47;17.90;39.20
7234;DHT22;3658;47.992;10.158;2024-03-29T00:57:13;17.90;39.20
7234;DHT22;3658;47.992;10.158;2024-03-29T00:59:39;17.90;39.20
7234;DHT22;3658;47.992;10.158;2024-03-29T01:02:05;17.90;39.20
7234;DHT22;3658;47.992;10.158;2024-03-29T01:04:31;17.90;39.20
7234;DHT22;3658;47.992;10.158;2024-03-29T01:06:57;17.90;39.20
7234;DHT22;3658;47.992;10.158;2024-03-29T01:09:24;17.90;39.20
7234;DHT22;3658;47.992;10.158;2024-03-29T01:11:50;17.90;39.20
7234;DHT22;3658;47.992;10.158;2024-03-29T01:14:16;17.90;39.20
7234;DHT22;3658;47.992;10.158;2024-03-29T01:16:42;17.90;39.20
7234;DHT22;3658;47.992;10.158;2024-03-29T01:19:08;17.90;39.20
7234;DHT22;3658;47.992;10.158;2024-03-29T01:21:34;17.90;39.20
7234;DHT22;3658;47.992;10.158;2024-03-29T01:24:00;17.90;39.20
7234;DHT22;3658;47.992;10.158;2024-03-29T01:26:27;17.90;39.20
7234;DHT22;3658;47.992;10.158;2024-03-29T01:28:53;17.90;39.20
7234;DHT22;3658;47.992;10.158;2024-03-29T01:31:19;17.90;39.20
7234;DHT22;3658;47.992;10.158;2024-03-29T01:33:44;17.90;39.20
7234;DHT22;3658;47.992;10.158;2024-03-29T01:36:10;17.90;39.20
7234;DHT22;3658;47.992;10.158;2024-03-29T01:38:36;17.90;39.20
7234;DHT22;3658;47.992;10.158;2024-03-29T01:41:02;17.90;39.20
7234;DHT22;3658;47.992;10.158;2024-03-29T01:43:30;17.90;39.20
7234;DHT22;3658;47.992;10.158;2024-03-29T01:45:56;17.90;39.20
7234;DHT22;3658;47.992;10.158;2024-03-29T01:48:24;17.90;39.20
7234;DHT22;3658;47.992;10.158;2024-03-29T01:50:53;17.90;39.20
7234;DHT22;3658;47.992;10.158;2024-03-29T01:53:21;17.90;39.20
7234;DHT22;3658;47.992;10.158;2024-03-29T01:55:48;17.90;39.20
7234;DHT22;3658;47.992;10.158;2024-03-29T01:58:15;17.90;39.80
7234;DHT22;3658;47.992;10.158;2024-03-29T02:00:50;17.90;39.20
7234;DHT22;3658;47.992;10.158;2024-03-29T02:03:17;17.90;39.20
7234;DHT22;3658;47.992;10.158;2024-03-29T02:05:46;17.90;39.20
7234;DHT22;3658;47.992;10.158;2024-03-29T02:08:14;17.90;39.20
7234;DHT22;3658;47.992;10.158;2024-03-29T02:10:41;17.90;39.20
7234;DHT22;3658;47.992;10.158;2024-03-29T02:13:08;17.90;39.20
7234;DHT22;3658;47.992;10.158;2024-03-29T02:15:35;17.90;39.20
7234;DHT22;3658;47.992;10.158;2024-03-29T02:18:03;17.90;39.20
7234;DHT22;3658;47.992;10.158;2024-03-29T02:20:30;17.90;39.20
7234;DHT22;3658;47.992;10.158;2024-03-29T02:23:07;17.90;39.20
7234;DHT22;3658;47.992;10.158;2024-03-29T02:25:37;17.90;39.20
7234;DHT22;3658;47.992;10.158;2024-03-29T02:28:04;17.90;39.20
7234;DHT22;3658;47.992;10.158;2024-03-29T02:30:32;17.90;39.20
7234;DHT22;3658;47.992;10.158;2024-03-29T02:32:59;17.80;39.10
7234;DHT22;3658;47.992;10.158;2024-03-29T02:35:26;17.90;39.20
7234;DHT22;3658;47.992;10.158;2024-03-29T02:37:53;17.90;39.20
7234;DHT22;3658;47.992;10.158;2024-03-29T02:40:20;17.80;39.10
7234;DHT22;3658;47.992;10.158;2024-03-29T02:42:49;17.80;39.10
7234;DHT22;3658;47.992;10.158;2024-03-29T02:45:16;17.80;39.10
7234;DHT22;3658;47.992;10.158;2024-03-29T02:47:42;17.80;39.10
7234;DHT22;3658;47.992;10.158;2024-03-29T02:50:11;17.80;39.10
7234;DHT22;3658;47.992;10.158;2024-03-29T02:52:37;17.80;39.10
7234;DHT22;3658;47.992;10.158;2024-03-29T02:55:05;17.80;39.10
7234;DHT22;3658;47.992;10.158;2024-03-29T02:57:30;17.80;39.10
7234;DHT22;3658;47.992;10.158;2024-03-29T02:59:58;17.80;39.10
7234;DHT22;3658;47.992;10.158;2024-03-29T03:02:24;17.80;39.10
7234;DHT22;3658;47.992;10.158;2024-03-29T03:04:51;17.80;39.10
7234;DHT22;3658;47.992;10.158;2024-03-29T03:07:17;17.80;39.10
7234;DHT22;3658;47.992;10.158;2024-03-29T03:09:57;17.80;39.10
7234;DHT22;3658;47.992;10.158;2024-03-29T03:12:42;17.80;39.10
7234;DHT22;3658;47.992;10.158;2024-03-29T03:15:10;17.80;39.10
7234;DHT22;3658;47.992;10.158;2024-03-29T03:17:37;17.80;39.10
7234;DHT22;3658;47.992;10.158;2024-03-29T03:20:04;17.80;39.10
7234;DHT22;3658;47.992;10.158;2024-03-29T03:22:32;17.80;39.10
7234;DHT22;3658;47.992;10.158;2024-03-29T03:24:59;17.80;39.10
7234;DHT22;3658;47.992;10.158;2024-03-29T03:27:24;17.80;39.10
7234;DHT22;3658;47.992;10.158;2024-03-29T03:29:51;17.90;39.10
7234;DHT22;3658;47.992;10.158;2024-03-29T03:32:18;17.80;39.10
7234;DHT22;3658;47.992;10.158;2024-03-29T03:34:45;17.80;39.10
7234;DHT22;3658;47.992;10.158;2024-03-29T03:37:11;17.80;39.10
7234;DHT22;3658;47.992;10.158;2024-03-29T03:39:38;17.80;39.10
7234;DHT22;3658;47.992;10.158;2024-03-29T03:42:04;17.80;39.10
7234;DHT22;3658;47.992;10.158;2024-03-29T03:44:31;17.80;39.10
7234;DHT22;3658;47.992;10.158;2024-03-29T03:46:57;17.80;39.10
7234;DHT22;3658;47.992;10.158;2024-03-29T03:49:25;17.80;39.10
7234;DHT22;3658;47.992;10.158;2024-03-29T03:51:50;17.80;39.10
7234;DHT22;3658;47.992;10.158;2024-03-29T03:54:17;17.80;39.10
7234;DHT22;3658;47.992;10.158;2024-03-29T03:56:43;17.80;39.10
7234;DHT22;3658;47.992;10.158;2024-03-29T03:59:10;17.80;39.10
7234;DHT22;3658;47.992;10.158;2024-03-29T04:01:35;17.80;39.10
7234;DHT22;3658;47.992;10.158;2024-03-29T04:04:02;17.80;39.00
7234;DHT22;3658;47.992;10.158;2024-03-29T04:06:29;17.80;39.10
7234;DHT22;3658;47.992;10.158;2024-03-29T04:08:56;17.80;39.10
7234;DHT22;3658;47.992;10.158;2024-03-29T04:11:22;17.80;39.10
7234;DHT22;3658;47.992;10.158;2024-03-29T04:13:48;17.80;39.10
7234;DHT22;3658;47.992;10.158;2024-03-29T04:16:14;17.80;39.10
7234;DHT22;3658;47.992;10.158;2024-03-29T04:18:41;17.80;39.10
7234;DHT22;3658;47.992;10.158;2024-03-29T04:21:07;17.80;39.10
7234;DHT22;3658;47.992;10.158;2024-03-29T04:23:36;17.80;39.10
7234;DHT22;3658;47.992;10.158;2024-03-29T04:26:03;17.80;39.10
7234;DHT22;3658;47.992;10.158;2024-03-29T04:28:29;17.80;39.10
7234;DHT22;3658;47.992;10.158;2024-03-29T04:30:57;17.80;39.10
7234;DHT22;3658;47.992;10.158;2024-03-29T04:33:25;17.80;39.10
7234;DHT22;3658;47.992;10.158;2024-03-29T04:35:53;17.80;39.10
7234;DHT22;3658;47.992;10.158;2024-03-29T04:38:20;17.80;39.10
7234;DHT22;3658;47.992;10.158;2024-03-29T04:40:48;17.80;39.10
7234;DHT22;3658;47.992;10.158;2024-03-29T04:43:15;17.80;39.00
7234;DHT22;3658;47.992;10.158;2024-03-29T04:45:43;17.80;39.10
7234;DHT22;3658;47.992;10.158;2024-03-29T04:48:10;17.80;39.00
7234;DHT22;3658;47.992;10.158;2024-03-29T04:50:37;17.80;39.00
7234;DHT22;3658;47.992;10.158;2024-03-29T04:53:04;17.80;39.10
7234;DHT22;3658;47.992;10.158;2024-03-29T04:55:30;17.80;39.00
7234;DHT22;3658;47.992;10.158;2024-03-29T04:57:58;17.80;39.00
7234;DHT22;3658;47.992;10.158;2024-03-29T05:00:25;17.80;39.10
7234;DHT22;3658;47.992;10.158;2024-03-29T05:02:52;17.80;39.00
7234;DHT22;3658;47.992;10.158;2024-03-29T05:05:19;17.80;39.10
7234;DHT22;3658;47.992;10.158;2024-03-29T05:07:45;17.80;39.10
7234;DHT22;3658;47.992;10.158;2024-03-29T05:10:13;17.80;39.10
7234;DHT22;3658;47.992;10.158;2024-03-29T05:12:42;17.80;39.10
7234;DHT22;3658;47.992;10.158;2024-03-29T05:15:10;17.80;39.10
7234;DHT22;3658;47.992;10.158;2024-03-29T05:17:37;17.80;39.10
7234;DHT22;3658;47.992;10.158;2024-03-29T05:20:04;17.80;39.00
7234;DHT22;3658;47.992;10.158;2024-03-29T05:22:31;17.80;39.10
7234;DHT22;3658;47.992;10.158;2024-03-29T05:24:58;17.80;39.00
7234;DHT22;3658;47.992;10.158;2024-03-29T05:27:25;17.80;39.10
7234;DHT22;3658;47.992;10.158;2024-03-29T05:29:51;17.80;39.00
7234;DHT22;3658;47.992;10.158;2024-03-29T05:32:19;17.80;39.10
7234;DHT22;3658;47.992;10.158;2024-03-29T05:34:46;17.80;39.10
7234;DHT22;3658;47.992;10.158;2024-03-29T05:37:13;17.80;39.00
7234;DHT22;3658;47.992;10.158;2024-03-29T05:39:41;17.70;39.00
7234;DHT22;3658;47.992;10.158;2024-03-29T05:42:08;17.80;39.10
7234;DHT22;3658;47.992;10.158;2024-03-29T05:44:35;17.80;39.00
7234;DHT22;3658;47.992;10.158;2024-03-29T05:47:03;17.80;39.10
7234;DHT22;3658;47.992;10.158;2024-03-29T05:49:32;17.80;39.00
7234;DHT22;3658;47.992;10.158;2024-03-29T05:51:58;17.80;39.10
7234;DHT22;3658;47.992;10.158;2024-03-29T05:54:25;17.80;39.10
7234;DHT22;3658;47.992;10.158;2024-03-29T05:56:52;17.80;39.00
7234;DHT22;3658;47.992;10.158;2024-03-29T05:59:19;17.80;39.00
7234;DHT22;3658;47.992;10.158;2024-03-29T06:01:45;17.80;39.00
7234;DHT22;3658;47.992;10.158;2024-03-29T06:04:12;17.80;39.00
7234;DHT22;3658;47.992;10.158;2024-03-29T06:06:43;17.80;39.00
7234;DHT22;3658;47.992;10.158;2024-03-29T06:09:09;17.80;39.00
7234;DHT22;3658;47.992;10.158;2024-03-29T06:11:36;17.80;39.00
7234;DHT22;3658;47.992;10.158;2024-03-29T06:14:03;17.70;38.90
7234;DHT22;3658;47.992;10.158;2024-03-29T06:16:47;17.70;38.90
7234;DHT22;3658;47.992;10.158;2024-03-29T06:19:31;17.80;39.00
7234;DHT22;3658;47.992;10.158;2024-03-29T06:22:00;17.80;39.00
7234;DHT22;3658;47.992;10.158;2024-03-29T06:24:26;17.80;39.00
7234;DHT22;3658;47.992;10.158;2024-03-29T06:26:53;17.70;38.90
7234;DHT22;3658;47.992;10.158;2024-03-29T06:29:20;17.80;39.00
7234;DHT22;3658;47.992;10.158;2024-03-29T06:31:46;17.80;39.00
7234;DHT22;3658;47.992;10.158;2024-03-29T06:34:13;17.70;38.90
7234;DHT22;3658;47.992;10.158;2024-03-29T06:36:40;17.70;38.90
7234;DHT22;3658;47.992;10.158;2024-03-29T06:39:08;17.70;38.90
7234;DHT22;3658;47.992;10.158;2024-03-29T06:41:35;17.70;38.90
7234;DHT22;3658;47.992;10.158;2024-03-29T06:44:02;17.70;38.90
7234;DHT22;3658;47.992;10.158;2024-03-29T06:46:29;17.70;39.00
7234;DHT22;3658;47.992;10.158;2024-03-29T06:48:57;17.80;39.00
7234;DHT22;3658;47.992;10.158;2024-03-29T06:51:24;17.80;39.00
7234;DHT22;3658;47.992;10.158;2024-03-29T06:53:51;17.70;38.90
7234;DHT22;3658;47.992;10.158;2024-03-29T06:56:20;17.80;39.00
7234;DHT22;3658;47.992;10.158;2024-03-29T06:58:46;17.80;39.00
7234;DHT22;3658;47.992;10.158;2024-03-29T07:01:13;17.70;38.90
7234;DHT22;3658;47.992;10.158;2024-03-29T07:03:40;17.70;38.90
7234;DHT22;3658;47.992;10.158;2024-03-29T07:06:07;17.70;38.90
7234;DHT22;3658;47.992;10.158;2024-03-29T07:08:33;17.70;38.90
7234;DHT22;3658;47.992;10.158;2024-03-29T07:11:01;17.70;38.90
7234;DHT22;3658;47.992;10.158;2024-03-29T07:13:30;17.70;38.90
7234;DHT22;3658;47.992;10.158;2024-03-29T07:15:57;17.70;38.90
7234;DHT22;3658;47.992;10.158;2024-03-29T07:18:24;17.70;38.90
7234;DHT22;3658;47.992;10.158;2024-03-29T07:20:51;17.70;38.90
7234;DHT22;3658;47.992;10.158;2024-03-29T07:23:18;17.70;38.90
7234;DHT22;3658;47.992;10.158;2024-03-29T07:25:56;17.80;39.00
7234;DHT22;3658;47.992;10.158;2024-03-29T07:28:23;17.70;38.90
7234;DHT22;3658;47.992;10.158;2024-03-29T07:30:52;17.70;38.90
7234;DHT22;3658;47.992;10.158;2024-03-29T07:33:18;17.70;38.90
7234;DHT22;3658;47.992;10.158;2024-03-29T07:35:46;17.70;38.90
7234;DHT22;3658;47.992;10.158;2024-03-29T07:38:13;17.70;38.90
7234;DHT22;3658;47.992;10.158;2024-03-29T07:40:41;17.80;39.00
7234;DHT22;3658;47.992;10.158;2024-03-29T07:43:07;17.70;38.90
7234;DHT22;3658;47.992;10.158;2024-03-29T07:45:34;17.70;38.90
7234;DHT22;3658;47.992;10.158;2024-03-29T07:48:03;17.70;38.90
7234;DHT22;3658;47.992;10.158;2024-03-29T07:50:30;17.70;38.90
7234;DHT22;3658;47.992;10.158;2024-03-29T07:52:56;17.80;39.00
7234;DHT22;3658;47.992;10.158;2024-03-29T07:55:23;17.70;38.90
7234;DHT22;3658;47.992;10.158;2024-03-29T07:57:50;17.70;38.90
7234;DHT22;3658;47.992;10.158;2024-03-29T08:00:17;17.70;38.90
7234;DHT22;3658;47.992;10.158;2024-03-29T08:02:44;17.70;38.90
7234;DHT22;3658;47.992;10.158;2024-03-29T08:05:13;17.70;38.90
7234;DHT22;3658;47.992;10.158;2024-03-29T08:07:39;17.70;38.90
7234;DHT22;3658;47.992;10.158;2024-03-29T08:10:07;17.70;38.90
7234;DHT22;3658;47.992;10.158;2024-03-29T08:12:34;17.70;38.90
7234;DHT22;3658;47.992;10.158;2024-03-29T08:15:02;17.70;38.90
7234;DHT22;3658;47.992;10.158;2024-03-29T08:17:29;17.70;38.90
7234;DHT22;3658;47.992;10.158;2024-03-29T08:19:56;17.70;38.90
7234;DHT22;3658;47.992;10.158;2024-03-29T08:22:24;17.70;38.90
7234;DHT22;3658;47.992;10.158;2024-03-29T08:24:51;17.70;38.90
7234;DHT22;3658;47.992;10.158;2024-03-29T08:27:18;17.70;39.00
7234;DHT22;3658;47.992;10.158;2024-03-29T08:29:44;17.70;39.00
7234;DHT22;3658;47.992;10.158;2024-03-29T08:32:11;17.70;39.00
7234;DHT22;3658;47.992;10.158;2024-03-29T08:34:38;17.70;38.90
7234;DHT22;3658;47.992;10.158;2024-03-29T08:37:05;17.70;38.90
7234;DHT22;3658;47.992;10.158;2024-03-29T08:39:33;17.70;38.90
7234;DHT22;3658;47.992;10.158;2024-03-29T08:42:01;17.70;38.90
7234;DHT22;3658;47.992;10.158;2024-03-29T08:44:30;17.70;38.90
7234;DHT22;3658;47.992;10.158;2024-03-29T08:46:57;17.70;38.90
7234;DHT22;3658;47.992;10.158;2024-03-29T08:49:24;17.70;38.90
7234;DHT22;3658;47.992;10.158;2024-03-29T08:51:51;17.70;38.90
7234;DHT22;3658;47.992;10.158;2024-03-29T08:54:18;17.70;39.00
7234;DHT22;3658;47.992;10.158;2024-03-29T08:56:46;17.70;39.00
7234;DHT22;3658;47.992;10.158;2024-03-29T08:59:14;17.70;39.00
7234;DHT22;3658;47.992;10.158;2024-03-29T09:01:44;17.70;39.00
7234;DHT22;3658;47.992;10.158;2024-03-29T09:04:11;17.70;39.00
7234;DHT22;3658;47.992;10.158;2024-03-29T09:06:38;17.70;39.00
7234;DHT22;3658;47.992;10.158;2024-03-29T09:09:04;17.70;38.90
7234;DHT22;3658;47.992;10.158;2024-03-29T09:11:31;17.70;39.00
7234;DHT22;3658;47.992;10.158;2024-03-29T09:13:59;17.70;39.00
7234;DHT22;3658;47.992;10.158;2024-03-29T09:16:27;17.70;39.00
7234;DHT22;3658;47.992;10.158;2024-03-29T09:18:55;17.70;39.00
7234;DHT22;3658;47.992;10.158;2024-03-29T09:21:22;17.70;39.00
7234;DHT22;3658;47.992;10.158;2024-03-29T09:23:49;17.70;39.00
7234;DHT22;3658;47.992;10.158;2024-03-29T09:26:18;17.70;39.00
7234;DHT22;3658;47.992;10.158;2024-03-29T09:28:45;17.70;39.00
7234;DHT22;3658;47.992;10.158;2024-03-29T09:31:13;17.70;39.00
7234;DHT22;3658;47.992;10.158;2024-03-29T09:33:40;17.70;39.00
7234;DHT22;3658;47.992;10.158;2024-03-29T09:36:07;17.70;39.00
7234;DHT22;3658;47.992;10.158;2024-03-29T09:38:36;17.70;39.00
7234;DHT22;3658;47.992;10.158;2024-03-29T09:41:15;17.70;39.00
7234;DHT22;3658;47.992;10.158;2024-03-29T09:43:43;17.70;39.00
7234;DHT22;3658;47.992;10.158;2024-03-29T09:46:12;17.70;39.00
7234;DHT22;3658;47.992;10.158;2024-03-29T09:48:40;17.80;39.10
7234;DHT22;3658;47.992;10.158;2024-03-29T09:51:07;17.70;39.00
7234;DHT22;3658;47.992;10.158;2024-03-29T09:53:35;17.80;39.10
7234;DHT22;3658;47.992;10.158;2024-03-29T09:56:03;17.80;39.10
7234;DHT22;3658;47.992;10.158;2024-03-29T09:58:30;17.70;39.00
7234;DHT22;3658;47.992;10.158;2024-03-29T10:00:57;17.80;39.10
7234;DHT22;3658;47.992;10.158;2024-03-29T10:03:26;17.70;39.00
7234;DHT22;3658;47.992;10.158;2024-03-29T10:05:56;17.70;39.00
7234;DHT22;3658;47.992;10.158;2024-03-29T10:08:23;17.80;39.70
7234;DHT22;3658;47.992;10.158;2024-03-29T10:10:50;17.70;39.00
7234;DHT22;3658;47.992;10.158;2024-03-29T10:13:17;17.80;39.10
7234;DHT22;3658;47.992;10.158;2024-03-29T10:15:44;17.70;39.00
7234;DHT22;3658;47.992;10.158;2024-03-29T10:18:14;17.80;39.10
7234;DHT22;3658;47.992;10.158;2024-03-29T10:20:44;17.80;39.10
7234;DHT22;3658;47.992;10.158;2024-03-29T10:23:11;17.80;39.10
7234;DHT22;3658;47.992;10.158;2024-03-29T10:25:38;17.80;39.10
7234;DHT22;3658;47.992;10.158;2024-03-29T10:28:05;17.80;39.10
7234;DHT22;3658;47.992;10.158;2024-03-29T10:30:33;17.80;39.10
7234;DHT22;3658;47.992;10.158;2024-03-29T10:33:00;17.80;39.10
7234;DHT22;3658;47.992;10.158;2024-03-29T10:35:27;17.80;39.20
7234;DHT22;3658;47.992;10.158;2024-03-29T10:37:55;17.80;39.20
7234;DHT22;3658;47.992;10.158;2024-03-29T10:40:22;17.80;39.10
7234;DHT22;3658;47.992;10.158;2024-03-29T10:42:51;17.80;39.20
7234;DHT22;3658;47.992;10.158;2024-03-29T10:45:20;17.80;39.10
7234;DHT22;3658;47.992;10.158;2024-03-29T10:47:48;17.80;39.10
7234;DHT22;3658;47.992;10.158;2024-03-29T10:50:17;17.80;39.10
7234;DHT22;3658;47.992;10.158;2024-03-29T10:52:47;17.80;39.10
7234;DHT22;3658;47.992;10.158;2024-03-29T10:55:15;17.80;39.10
7234;DHT22;3658;47.992;10.158;2024-03-29T10:57:42;17.80;39.20
7234;DHT22;3658;47.992;10.158;2024-03-29T11:00:12;17.80;39.20
7234;DHT22;3658;47.992;10.158;2024-03-29T11:02:48;17.80;39.10
7234;DHT22;3658;47.992;10.158;2024-03-29T11:05:16;17.80;39.20
7234;DHT22;3658;47.992;10.158;2024-03-29T11:07:44;17.80;39.20
7234;DHT22;3658;47.992;10.158;2024-03-29T11:10:17;17.80;39.20
7234;DHT22;3658;47.992;10.158;2024-03-29T11:12:59;17.80;39.20
7234;DHT22;3658;47.992;10.158;2024-03-29T11:15:29;17.80;39.10
7234;DHT22;3658;47.992;10.158;2024-03-29T11:17:57;17.80;39.20
7234;DHT22;3658;47.992;10.158;2024-03-29T11:20:25;17.80;39.20
7234;DHT22;3658;47.992;10.158;2024-03-29T11:23:01;17.80;39.10
7234;DHT22;3658;47.992;10.158;2024-03-29T11:25:40;17.80;39.20
7234;DHT22;3658;47.992;10.158;2024-03-29T11:28:07;17.80;39.10
7234;DHT22;3658;47.992;10.158;2024-03-29T11:30:42;17.80;39.10
7234;DHT22;3658;47.992;10.158;2024-03-29T11:33:27;17.80;39.10
7234;DHT22;3658;47.992;10.158;2024-03-29T11:35:55;17.80;39.20
7234;DHT22;3658;47.992;10.158;2024-03-29T11:38:22;17.80;39.20
7234;DHT22;3658;47.992;10.158;2024-03-29T11:41:02;17.80;39.20
7234;DHT22;3658;47.992;10.158;2024-03-29T11:43:29;17.80;39.20
7234;DHT22;3658;47.992;10.158;2024-03-29T11:45:58;17.80;39.20
7234;DHT22;3658;47.992;10.158;2024-03-29T11:48:27;17.80;39.10
7234;DHT22;3658;47.992;10.158;2024-03-29T11:50:54;17.80;39.20
7234;DHT22;3658;47.992;10.158;2024-03-29T11:53:21;17.80;39.10
7234;DHT22;3658;47.992;10.158;2024-03-29T11:55:48;17.80;39.10
7234;DHT22;3658;47.992;10.158;2024-03-29T11:58:20;17.80;39.20
7234;DHT22;3658;47.992;10.158;2024-03-29T12:00:48;17.80;39.10
7234;DHT22;3658;47.992;10.158;2024-03-29T12:03:16;17.80;39.10
7234;DHT22;3658;47.992;10.158;2024-03-29T12:05:42;17.80;39.20
7234;DHT22;3658;47.992;10.158;2024-03-29T12:08:09;17.80;39.10
7234;DHT22;3658;47.992;10.158;2024-03-29T12:10:37;17.80;39.20
7234;DHT22;3658;47.992;10.158;2024-03-29T12:13:04;17.80;39.20
7234;DHT22;3658;47.992;10.158;2024-03-29T12:15:33;17.80;39.10
7234;DHT22;3658;47.992;10.158;2024-03-29T12:18:01;17.80;39.10
7234;DHT22;3658;47.992;10.158;2024-03-29T12:20:29;17.80;39.10
7234;DHT22;3658;47.992;10.158;2024-03-29T12:22:59;17.80;39.10
7234;DHT22;3658;47.992;10.158;2024-03-29T12:25:26;17.80;39.10
7234;DHT22;3658;47.992;10.158;2024-03-29T12:27:53;17.80;39.10
7234;DHT22;3658;47.992;10.158;2024-03-29T12:30:20;17.80;39.10
7234;DHT22;3658;47.992;10.158;2024-03-29T12:32:59;17.80;39.10
7234;DHT22;3658;47.992;10.158;2024-03-29T12:35:27;17.80;39.10
7234;DHT22;3658;47.992;10.158;2024-03-29T12:37:54;17.80;39.10
7234;DHT22;3658;47.992;10.158;2024-03-29T12:40:23;17.80;39.10
7234;DHT22;3658;47.992;10.158;2024-03-29T12:42:50;17.80;39.10
7234;DHT22;3658;47.992;10.158;2024-03-29T12:45:18;17.80;39.20
7234;DHT22;3658;47.992;10.158;2024-03-29T12:47:45;17.80;39.10
7234;DHT22;3658;47.992;10.158;2024-03-29T12:50:19;17.80;39.10
7234;DHT22;3658;47.992;10.158;2024-03-29T12:52:53;17.80;39.20
7234;DHT22;3658;47.992;10.158;2024-03-29T12:55:20;17.80;39.10
7234;DHT22;3658;47.992;10.158;2024-03-29T12:57:48;17.80;39.20
7234;DHT22;3658;47.992;10.158;2024-03-29T13:00:15;17.90;39.20
7234;DHT22;3658;47.992;10.158;2024-03-29T13:02:42;17.80;39.20
7234;DHT22;3658;47.992;10.158;2024-03-29T13:05:09;17.80;39.10
7234;DHT22;3658;47.992;10.158;2024-03-29T13:07:37;17.80;39.10
7234;DHT22;3658;47.992;10.158;2024-03-29T13:10:04;17.80;39.10
7234;DHT22;3658;47.992;10.158;2024-03-29T13:12:38;17.80;39.10
7234;DHT22;3658;47.992;10.158;2024-03-29T13:15:16;17.80;39.20
7234;DHT22;3658;47.992;10.158;2024-03-29T13:17:44;17.90;39.20
7234;DHT22;3658;47.992;10.158;2024-03-29T13:20:12;17.80;39.20
7234;DHT22;3658;47.992;10.158;2024-03-29T13:22:40;17.80;39.20
7234;DHT22;3658;47.992;10.158;2024-03-29T13:25:07;17.80;39.20
7234;DHT22;3658;47.992;10.158;2024-03-29T13:27:35;17.80;39.20
7234;DHT22;3658;47.992;10.158;2024-03-29T13:30:03;17.80;39.20
7234;DHT22;3658;47.992;10.158;2024-03-29T13:32:30;17.80;39.20
7234;DHT22;3658;47.992;10.158;2024-03-29T13:34:58;17.80;39.20
7234;DHT22;3658;47.992;10.158;2024-03-29T13:37:25;17.90;39.20
7234;DHT22;3658;47.992;10.158;2024-03-29T13:39:55;17.80;39.20
7234;DHT22;3658;47.992;10.158;2024-03-29T13:42:22;17.80;39.20
7234;DHT22;3658;47.992;10.158;2024-03-29T13:44:49;17.80;39.20
7234;DHT22;3658;47.992;10.158;2024-03-29T13:47:17;17.80;39.20
7234;DHT22;3658;47.992;10.158;2024-03-29T13:49:44;17.80;39.20
7234;DHT22;3658;47.992;10.158;2024-03-29T13:52:12;17.80;39.20
7234;DHT22;3658;47.992;10.158;2024-03-29T13:54:42;17.80;39.20
7234;DHT22;3658;47.992;10.158;2024-03-29T13:57:11;17.80;39.20
7234;DHT22;3658;47.992;10.158;2024-03-29T13:59:37;17.80;39.20
7234;DHT22;3658;47.992;10.158;2024-03-29T14:02:04;17.80;39.20
7234;DHT22;3658;47.992;10.158;2024-03-29T14:04:31;17.80;39.20
7234;DHT22;3658;47.992;10.158;2024-03-29T14:06:59;17.80;39.20
7234;DHT22;3658;47.992;10.158;2024-03-29T14:09:27;17.80;39.20
7234;DHT22;3658;47.992;10.158;2024-03-29T14:11:54;17.80;39.20
7234;DHT22;3658;47.992;10.158;2024-03-29T14:14:23;17.80;39.20
7234;DHT22;3658;47.992;10.158;2024-03-29T14:16:49;17.90;39.30
7234;DHT22;3658;47.992;10.158;2024-03-29T14:19:16;17.90;39.30
7234;DHT22;3658;47.992;10.158;2024-03-29T14:21:43;17.90;39.30
7234;DHT22;3658;47.992;10.158;2024-03-29T14:24:10;17.80;39.20
7234;DHT22;3658;47.992;10.158;2024-03-29T14:26:36;17.90;39.30
7234;DHT22;3658;47.992;10.158;2024-03-29T14:29:04;17.90;39.30
7234;DHT22;3658;47.992;10.158;2024-03-29T14:31:33;17.90;39.30
7234;DHT22;3658;47.992;10.158;2024-03-29T14:34:00;17.90;39.30
7234;DHT22;3658;47.992;10.158;2024-03-29T14:36:27;17.90;39.30
7234;DHT22;3658;47.992;10.158;2024-03-29T14:38:54;17.90;39.30
7234;DHT22;3658;47.992;10.158;2024-03-29T14:41:22;17.90;39.30
7234;DHT22;3658;47.992;10.158;2024-03-29T14:43:49;17.90;39.30
7234;DHT22;3658;47.992;10.158;2024-03-29T14:46:17;17.90;39.30
7234;DHT22;3658;47.992;10.158;2024-03-29T14:48:47;17.90;39.30
7234;DHT22;3658;47.992;10.158;2024-03-29T14:51:15;17.90;39.30
7234;DHT22;3658;47.992;10.158;2024-03-29T14:53:42;17.90;39.30
7234;DHT22;3658;47.992;10.158;2024-03-29T14:56:13;17.90;39.30
7234;DHT22;3658;47.992;10.158;2024-03-29T14:58:40;17.90;39.30
7234;DHT22;3658;47.992;10.158;2024-03-29T15:01:07;17.90;39.30
7234;DHT22;3658;47.992;10.158;2024-03-29T15:03:34;17.90;39.40
7234;DHT22;3658;47.992;10.158;2024-03-29T15:06:02;17.90;39.30
7234;DHT22;3658;47.992;10.158;2024-03-29T15:08:29;17.90;39.40
7234;DHT22;3658;47.992;10.158;2024-03-29T15:10:56;17.90;39.30
7234;DHT22;3658;47.992;10.158;2024-03-29T15:13:23;17.90;39.40
7234;DHT22;3658;47.992;10.158;2024-03-29T15:15:53;17.90;39.40
7234;DHT22;3658;47.992;10.158;2024-03-29T15:18:20;17.90;39.40
7234;DHT22;3658;47.992;10.158;2024-03-29T15:20:53;17.90;39.40
7234;DHT22;3658;47.992;10.158;2024-03-29T15:23:22;17.90;39.40
7234;DHT22;3658;47.992;10.158;2024-03-29T15:25:50;17.90;39.40
7234;DHT22;3658;47.992;10.158;2024-03-29T15:28:17;17.90;39.40
7234;DHT22;3658;47.992;10.158;2024-03-29T15:31:07;17.90;39.40
7234;DHT22;3658;47.992;10.158;2024-03-29T15:33:34;17.90;39.40
7234;DHT22;3658;47.992;10.158;2024-03-29T15:36:01;17.90;39.40
7234;DHT22;3658;47.992;10.158;2024-03-29T15:38:29;17.90;39.40
7234;DHT22;3658;47.992;10.158;2024-03-29T15:40:56;17.90;39.40
7234;DHT22;3658;47.992;10.158;2024-03-29T15:43:23;17.90;39.40
7234;DHT22;3658;47.992;10.158;2024-03-29T15:45:50;17.90;39.40
7234;DHT22;3658;47.992;10.158;2024-03-29T15:48:17;17.90;39.40